createdAt,value
2018-02-07T00:00:33.195Z,1008.40
2018-02-07T00:01:33.097Z,1008.40
2018-02-07T00:02:33.111Z,1008.40
2018-02-07T00:03:33.095Z,1008.38
2018-02-07T00:04:33.093Z,1008.36
2018-02-07T00:05:33.021Z,1008.42
2018-02-07T00:06:32.921Z,1008.42
2018-02-07T00:07:32.942Z,1008.44
2018-02-07T00:08:32.866Z,1008.46
2018-02-07T00:09:32.875Z,1008.46
2018-02-07T00:10:32.827Z,1008.44
2018-02-07T00:11:32.832Z,1008.48
2018-02-07T00:12:32.767Z,1008.46
2018-02-07T00:13:32.720Z,1008.46
2018-02-07T00:14:32.748Z,1008.43
2018-02-07T00:15:34.200Z,1008.47
2018-02-07T00:16:32.662Z,1008.42
2018-02-07T00:17:32.599Z,1008.40
2018-02-07T00:18:32.620Z,1008.43
2018-02-07T00:19:32.540Z,1008.39
2018-02-07T00:20:32.527Z,1008.45
2018-02-07T00:21:32.467Z,1008.42
2018-02-07T00:22:32.437Z,1008.38
2018-02-07T00:23:32.356Z,1008.44
2018-02-07T00:24:32.372Z,1008.40
2018-02-07T00:25:32.288Z,1008.37
2018-02-07T00:26:32.336Z,1008.42
2018-02-07T00:27:32.219Z,1008.40
2018-02-07T00:28:32.243Z,1008.39
2018-02-07T00:29:32.228Z,1008.36
2018-02-07T00:30:32.163Z,1008.36
2018-02-07T00:31:32.161Z,1008.34
2018-02-07T00:32:32.180Z,1008.41
2018-02-07T00:33:32.084Z,1008.36
2018-02-07T00:34:32.036Z,1008.35
2018-02-07T00:35:32.051Z,1008.33
2018-02-07T00:36:31.914Z,1008.32
2018-02-07T00:37:31.912Z,1008.35
2018-02-07T00:38:31.895Z,1008.39
2018-02-07T00:39:31.816Z,1008.43
2018-02-07T00:40:31.819Z,1008.38
2018-02-07T00:41:33.687Z,1008.39
2018-02-07T00:42:31.804Z,1008.43
2018-02-07T00:43:33.784Z,1008.43
2018-02-07T00:44:31.688Z,1008.44
2018-02-07T00:45:31.687Z,1008.46
2018-02-07T00:46:31.574Z,1008.44
2018-02-07T00:47:31.682Z,1008.46
2018-02-07T00:48:31.605Z,1008.40
2018-02-07T00:49:33.173Z,1008.44
2018-02-07T00:50:31.534Z,1008.46
2018-02-07T00:51:31.412Z,1008.47
2018-02-07T00:52:31.451Z,1008.48
2018-02-07T00:53:31.344Z,1008.52
2018-02-07T00:54:31.375Z,1008.48
2018-02-07T00:55:31.326Z,1008.51
2018-02-07T00:56:31.242Z,1008.51
2018-02-07T00:57:31.276Z,1008.50
2018-02-07T00:58:31.205Z,1008.51
2018-02-07T00:59:31.167Z,1008.51
2018-02-07T01:00:31.114Z,1008.48
2018-02-07T01:01:31.069Z,1008.43
2018-02-07T01:02:31.139Z,1008.50
2018-02-07T01:03:31.010Z,1008.48
2018-02-07T01:04:30.997Z,1008.52
2018-02-07T01:05:30.935Z,1008.49
2018-02-07T01:06:30.946Z,1008.46
2018-02-07T01:07:30.876Z,1008.49
2018-02-07T01:08:30.841Z,1008.49
2018-02-07T01:09:30.805Z,1008.48
2018-02-07T01:10:30.871Z,1008.48
2018-02-07T01:11:30.812Z,1008.48
2018-02-07T01:12:30.699Z,1008.53
2018-02-07T01:13:30.678Z,1008.48
2018-02-07T01:14:30.680Z,1008.49
2018-02-07T01:15:33.167Z,1008.56
2018-02-07T01:16:30.577Z,1008.52
2018-02-07T01:17:30.568Z,1008.52
2018-02-07T01:18:30.496Z,1008.54
2018-02-07T01:19:30.484Z,1008.56
2018-02-07T01:20:30.431Z,1008.55
2018-02-07T01:21:30.460Z,1008.55
2018-02-07T01:22:30.452Z,1008.53
2018-02-07T01:23:30.327Z,1008.55
2018-02-07T01:24:30.330Z,1008.60
2018-02-07T01:25:30.282Z,1008.59
2018-02-07T01:26:30.294Z,1008.58
2018-02-07T01:27:30.211Z,1008.63
2018-02-07T01:28:30.178Z,1008.64
2018-02-07T01:29:30.153Z,1008.68
2018-02-07T01:30:30.133Z,1008.68
2018-02-07T01:31:30.058Z,1008.68
2018-02-07T01:32:30.058Z,1008.67
2018-02-07T01:33:30.015Z,1008.64
2018-02-07T01:34:30.034Z,1008.64
2018-02-07T01:35:29.969Z,1008.59
2018-02-07T01:36:29.947Z,1008.63
2018-02-07T01:37:29.916Z,1008.56
2018-02-07T01:38:29.887Z,1008.55
2018-02-07T01:39:29.789Z,1008.55
2018-02-07T01:40:29.833Z,1008.55
2018-02-07T01:41:32.681Z,1008.59
2018-02-07T01:42:29.684Z,1008.53
2018-02-07T01:43:29.726Z,1008.57
2018-02-07T01:44:29.681Z,1008.54
2018-02-07T01:45:29.652Z,1008.56
2018-02-07T01:46:29.540Z,1008.53
2018-02-07T01:47:29.557Z,1008.60
2018-02-07T01:48:31.223Z,1008.56
2018-02-07T01:49:29.490Z,1008.54
2018-02-07T01:50:29.469Z,1008.56
2018-02-07T01:51:29.419Z,1008.57
2018-02-07T01:52:29.340Z,1008.58
2018-02-07T01:53:29.391Z,1008.60
2018-02-07T01:54:29.276Z,1008.62
2018-02-07T01:55:29.348Z,1008.65
2018-02-07T01:56:29.267Z,1008.63
2018-02-07T01:57:29.172Z,1008.65
2018-02-07T01:58:29.241Z,1008.64
2018-02-07T01:59:29.205Z,1008.66
2018-02-07T02:00:29.073Z,1008.64
2018-02-07T02:01:29.103Z,1008.67
2018-02-07T02:02:29.002Z,1008.65
2018-02-07T02:03:28.975Z,1008.68
2018-02-07T02:04:28.981Z,1008.66
2018-02-07T02:05:28.904Z,1008.68
2018-02-07T02:06:28.994Z,1008.71
2018-02-07T02:07:28.927Z,1008.70
2018-02-07T02:08:29.023Z,1008.69
2018-02-07T02:09:28.787Z,1008.73
2018-02-07T02:10:28.730Z,1008.71
2018-02-07T02:11:28.738Z,1008.71
2018-02-07T02:12:28.727Z,1008.71
2018-02-07T02:13:28.627Z,1008.70
2018-02-07T02:14:28.648Z,1008.72
2018-02-07T02:15:28.642Z,1008.73
2018-02-07T02:16:28.526Z,1008.69
2018-02-07T02:17:28.564Z,1008.63
2018-02-07T02:18:28.543Z,1008.68
2018-02-07T02:19:28.436Z,1008.67
2018-02-07T02:20:28.470Z,1008.70
2018-02-07T02:21:28.403Z,1008.68
2018-02-07T02:22:31.181Z,1008.72
2018-02-07T02:23:28.353Z,1008.74
2018-02-07T02:24:28.287Z,1008.69
2018-02-07T02:25:28.220Z,1008.69
2018-02-07T02:26:28.276Z,1008.65
2018-02-07T02:27:28.185Z,1008.68
2018-02-07T02:28:28.125Z,1008.66
2018-02-07T02:29:28.154Z,1008.69
2018-02-07T02:30:28.053Z,1008.66
2018-02-07T02:31:28.060Z,1008.68
2018-02-07T02:32:28.045Z,1008.67
2018-02-07T02:33:27.950Z,1008.73
2018-02-07T02:34:27.966Z,1008.74
2018-02-07T02:35:27.883Z,1008.72
2018-02-07T02:36:27.854Z,1008.75
2018-02-07T02:37:27.814Z,1008.70
2018-02-07T02:38:27.794Z,1008.77
2018-02-07T02:39:27.745Z,1008.73
2018-02-07T02:40:27.776Z,1008.73
2018-02-07T02:41:27.681Z,1008.73
2018-02-07T02:42:27.694Z,1008.78
2018-02-07T02:43:29.166Z,1008.76
2018-02-07T02:44:27.617Z,1008.75
2018-02-07T02:45:27.536Z,1008.78
2018-02-07T02:46:27.528Z,1008.73
2018-02-07T02:47:27.472Z,1008.69
2018-02-07T02:48:27.489Z,1008.75
2018-02-07T02:49:27.471Z,1008.76
2018-02-07T02:50:27.371Z,1008.72
2018-02-07T02:51:27.385Z,1008.63
2018-02-07T02:52:27.345Z,1008.66
2018-02-07T02:53:27.341Z,1008.67
2018-02-07T02:54:27.287Z,1008.63
2018-02-07T02:55:27.195Z,1008.60
2018-02-07T02:56:27.182Z,1008.59
2018-02-07T02:57:27.181Z,1008.59
2018-02-07T02:58:27.096Z,1008.57
2018-02-07T02:59:27.105Z,1008.61
2018-02-07T03:00:27.026Z,1008.57
2018-02-07T03:01:29.755Z,1008.58
2018-02-07T03:02:26.998Z,1008.59
2018-02-07T03:03:26.993Z,1008.54
2018-02-07T03:04:26.967Z,1008.52
2018-02-07T03:05:26.936Z,1008.51
2018-02-07T03:06:26.904Z,1008.54
2018-02-07T03:07:26.857Z,1008.50
2018-02-07T03:08:26.766Z,1008.56
2018-02-07T03:09:26.765Z,1008.52
2018-02-07T03:10:27.692Z,1008.55
2018-02-07T03:11:26.684Z,1008.55
2018-02-07T03:12:26.664Z,1008.57
2018-02-07T03:13:26.589Z,1008.57
2018-02-07T03:14:26.645Z,1008.57
2018-02-07T03:15:26.647Z,1008.58
2018-02-07T03:16:26.490Z,1008.60
2018-02-07T03:17:26.501Z,1008.62
2018-02-07T03:18:26.421Z,1008.62
2018-02-07T03:19:26.492Z,1008.64
2018-02-07T03:20:26.438Z,1008.67
2018-02-07T03:21:26.316Z,1008.65
2018-02-07T03:22:26.283Z,1008.63
2018-02-07T03:23:26.312Z,1008.67
2018-02-07T03:24:28.192Z,1008.68
2018-02-07T03:25:26.243Z,1008.68
2018-02-07T03:26:26.207Z,1008.66
2018-02-07T03:27:26.107Z,1008.60
2018-02-07T03:28:26.160Z,1008.65
2018-02-07T03:29:26.171Z,1008.58
2018-02-07T03:30:26.008Z,1008.63
2018-02-07T03:31:25.975Z,1008.64
2018-02-07T03:32:25.983Z,1008.66
2018-02-07T03:33:26.042Z,1008.69
2018-02-07T03:34:25.976Z,1008.69
2018-02-07T03:35:25.892Z,1008.67
2018-02-07T03:36:25.804Z,1008.67
2018-02-07T03:37:25.877Z,1008.70
2018-02-07T03:38:25.739Z,1008.71
2018-02-07T03:39:25.702Z,1008.66
2018-02-07T03:40:25.669Z,1008.68
2018-02-07T03:41:25.635Z,1008.70
2018-02-07T03:42:25.600Z,1008.71
2018-02-07T03:43:25.564Z,1008.73
2018-02-07T03:44:25.526Z,1008.73
2018-02-07T03:45:25.493Z,1008.67
2018-02-07T03:46:25.459Z,1008.68
2018-02-07T03:47:25.435Z,1008.71
2018-02-07T03:48:25.391Z,1008.66
2018-02-07T03:49:25.356Z,1008.66
2018-02-07T03:50:25.324Z,1008.67
2018-02-07T03:51:25.293Z,1008.66
2018-02-07T03:52:25.271Z,1008.70
2018-02-07T03:53:25.226Z,1008.66
2018-02-07T03:54:25.194Z,1008.63
2018-02-07T03:55:25.154Z,1008.67
2018-02-07T03:56:25.131Z,1008.65
2018-02-07T03:57:25.084Z,1008.67
2018-02-07T03:58:26.675Z,1008.69
2018-02-07T03:59:25.043Z,1008.66
2018-02-07T04:00:25.005Z,1008.67
2018-02-07T04:01:24.954Z,1008.74
2018-02-07T04:02:27.710Z,1008.67
2018-02-07T04:03:24.886Z,1008.70
2018-02-07T04:04:24.851Z,1008.67
2018-02-07T04:05:24.830Z,1008.70
2018-02-07T04:06:24.793Z,1008.69
2018-02-07T04:07:24.747Z,1008.71
2018-02-07T04:08:24.740Z,1008.71
2018-02-07T04:09:24.676Z,1008.76
2018-02-07T04:10:24.677Z,1008.69
2018-02-07T04:11:24.635Z,1008.67
2018-02-07T04:12:24.573Z,1008.70
2018-02-07T04:13:24.544Z,1008.67
2018-02-07T04:14:24.508Z,1008.68
2018-02-07T04:15:24.479Z,1008.67
2018-02-07T04:16:24.446Z,1008.67
2018-02-07T04:17:24.433Z,1008.70
2018-02-07T04:18:27.176Z,1008.67
2018-02-07T04:19:24.345Z,1008.68
2018-02-07T04:20:24.325Z,1008.64
2018-02-07T04:21:24.277Z,1008.67
2018-02-07T04:22:24.238Z,1008.67
2018-02-07T04:23:24.224Z,1008.68
2018-02-07T04:24:24.167Z,1008.72
2018-02-07T04:25:24.139Z,1008.70
2018-02-07T04:26:24.103Z,1008.73
2018-02-07T04:27:24.067Z,1008.68
2018-02-07T04:28:24.030Z,1008.71
2018-02-07T04:29:23.997Z,1008.68
2018-02-07T04:30:23.965Z,1008.70
2018-02-07T04:31:23.938Z,1008.73
2018-02-07T04:32:23.903Z,1008.76
2018-02-07T04:33:23.865Z,1008.77
2018-02-07T04:34:23.829Z,1008.81
2018-02-07T04:35:23.802Z,1008.83
2018-02-07T04:36:23.763Z,1008.83
2018-02-07T04:37:23.731Z,1008.87
2018-02-07T04:38:23.696Z,1008.86
2018-02-07T04:39:23.659Z,1008.85
2018-02-07T04:40:23.633Z,1008.81
2018-02-07T04:41:23.591Z,1008.83
2018-02-07T04:42:23.561Z,1008.82
2018-02-07T04:43:23.524Z,1008.82
2018-02-07T04:44:23.485Z,1008.75
2018-02-07T04:45:23.457Z,1008.80
2018-02-07T04:46:23.419Z,1008.80
2018-02-07T04:47:23.396Z,1008.84
2018-02-07T04:48:23.355Z,1008.84
2018-02-07T04:49:23.322Z,1008.84
2018-02-07T04:50:23.286Z,1008.79
2018-02-07T04:51:23.254Z,1008.80
2018-02-07T04:52:23.224Z,1008.78
2018-02-07T04:53:23.183Z,1008.80
2018-02-07T04:54:23.150Z,1008.83
2018-02-07T04:55:23.111Z,1008.83
2018-02-07T04:56:23.077Z,1008.82
2018-02-07T04:57:23.047Z,1008.77
2018-02-07T04:58:23.009Z,1008.82
2018-02-07T04:59:22.978Z,1008.79
2018-02-07T05:00:22.947Z,1008.79
2018-02-07T05:01:22.913Z,1008.83
2018-02-07T05:02:22.877Z,1008.78
2018-02-07T05:03:22.838Z,1008.79
2018-02-07T05:04:22.805Z,1008.77
2018-02-07T05:05:22.772Z,1008.78
2018-02-07T05:06:22.739Z,1008.75
2018-02-07T05:07:22.706Z,1008.80
2018-02-07T05:08:22.667Z,1008.75
2018-02-07T05:09:22.635Z,1008.79
2018-02-07T05:10:22.599Z,1008.84
2018-02-07T05:11:22.570Z,1008.84
2018-02-07T05:12:22.535Z,1008.87
2018-02-07T05:13:22.516Z,1008.87
2018-02-07T05:14:22.467Z,1008.87
2018-02-07T05:15:22.432Z,1008.90
2018-02-07T05:16:24.178Z,1008.90
2018-02-07T05:17:22.364Z,1008.91
2018-02-07T05:18:22.335Z,1008.92
2018-02-07T05:19:22.304Z,1008.90
2018-02-07T05:20:22.261Z,1008.93
2018-02-07T05:21:22.223Z,1008.93
2018-02-07T05:22:22.256Z,1008.92
2018-02-07T05:23:22.154Z,1008.96
2018-02-07T05:24:22.119Z,1008.98
2018-02-07T05:25:22.093Z,1008.99
2018-02-07T05:26:22.054Z,1009.01
2018-02-07T05:27:22.022Z,1009.03
2018-02-07T05:28:22.002Z,1009.05
2018-02-07T05:29:21.951Z,1009.08
2018-02-07T05:30:21.924Z,1009.09
2018-02-07T05:31:21.891Z,1009.07
2018-02-07T05:32:21.848Z,1009.10
2018-02-07T05:33:21.835Z,1009.05
2018-02-07T05:34:21.793Z,1009.11
2018-02-07T05:35:21.739Z,1009.07
2018-02-07T05:36:21.705Z,1009.08
2018-02-07T05:37:24.175Z,1009.10
2018-02-07T05:38:21.637Z,1009.15
2018-02-07T05:39:21.635Z,1009.18
2018-02-07T05:40:21.567Z,1009.17
2018-02-07T05:41:21.534Z,1009.16
2018-02-07T05:42:21.503Z,1009.17
2018-02-07T05:43:21.468Z,1009.18
2018-02-07T05:44:21.437Z,1009.15
2018-02-07T05:45:21.402Z,1009.14
2018-02-07T05:46:21.378Z,1009.16
2018-02-07T05:47:21.340Z,1009.10
2018-02-07T05:48:21.294Z,1009.11
2018-02-07T05:49:21.260Z,1009.16
2018-02-07T05:50:21.228Z,1009.16
2018-02-07T05:51:21.190Z,1009.20
2018-02-07T05:52:21.152Z,1009.21
2018-02-07T05:53:21.125Z,1009.20
2018-02-07T05:54:21.087Z,1009.26
2018-02-07T05:55:21.049Z,1009.19
2018-02-07T05:56:21.016Z,1009.19
2018-02-07T05:57:20.980Z,1009.18
2018-02-07T05:58:20.946Z,1009.15
2018-02-07T05:59:20.916Z,1009.10
2018-02-07T06:00:20.882Z,1009.16
2018-02-07T06:01:20.849Z,1009.10
2018-02-07T06:02:20.814Z,1009.05
2018-02-07T06:03:20.772Z,1009.09
2018-02-07T06:04:20.739Z,1009.14
2018-02-07T06:05:20.707Z,1009.08
2018-02-07T06:06:20.668Z,1009.05
2018-02-07T06:07:22.180Z,1009.12
2018-02-07T06:08:20.625Z,1009.11
2018-02-07T06:09:20.651Z,1009.12
2018-02-07T06:10:20.542Z,1009.13
2018-02-07T06:11:20.500Z,1009.12
2018-02-07T06:12:20.464Z,1009.15
2018-02-07T06:13:20.430Z,1009.15
2018-02-07T06:14:20.406Z,1009.11
2018-02-07T06:15:20.422Z,1009.11
2018-02-07T06:16:20.409Z,1009.16
2018-02-07T06:17:20.289Z,1009.12
2018-02-07T06:18:20.288Z,1009.09
2018-02-07T06:19:20.267Z,1009.16
2018-02-07T06:20:20.203Z,1009.15
2018-02-07T06:21:20.171Z,1009.13
2018-02-07T06:22:20.115Z,1009.15
2018-02-07T06:23:20.086Z,1009.10
2018-02-07T06:24:20.052Z,1009.15
2018-02-07T06:25:20.019Z,1009.14
2018-02-07T06:26:21.695Z,1009.18
2018-02-07T06:27:19.962Z,1009.16
2018-02-07T06:28:19.913Z,1009.14
2018-02-07T06:29:19.881Z,1009.14
2018-02-07T06:30:19.866Z,1009.15
2018-02-07T06:31:19.807Z,1009.18
2018-02-07T06:32:19.775Z,1009.16
2018-02-07T06:33:19.742Z,1009.20
2018-02-07T06:34:19.705Z,1009.20
2018-02-07T06:35:19.670Z,1009.21
2018-02-07T06:36:19.652Z,1009.23
2018-02-07T06:37:19.600Z,1009.24
2018-02-07T06:38:19.565Z,1009.25
2018-02-07T06:39:19.559Z,1009.28
2018-02-07T06:40:19.513Z,1009.32
2018-02-07T06:41:19.482Z,1009.34
2018-02-07T06:42:19.448Z,1009.36
2018-02-07T06:43:19.397Z,1009.38
2018-02-07T06:44:19.359Z,1009.33
2018-02-07T06:45:19.368Z,1009.34
2018-02-07T06:46:19.304Z,1009.44
2018-02-07T06:47:19.260Z,1009.42
2018-02-07T06:48:19.287Z,1009.44
2018-02-07T06:49:19.182Z,1009.44
2018-02-07T06:50:19.149Z,1009.40
2018-02-07T06:51:19.145Z,1009.49
2018-02-07T06:52:19.075Z,1009.47
2018-02-07T06:53:19.041Z,1009.48
2018-02-07T06:54:19.004Z,1009.54
2018-02-07T06:55:18.979Z,1009.59
2018-02-07T06:56:18.945Z,1009.59
2018-02-07T06:57:19.200Z,1009.63
2018-02-07T06:58:18.874Z,1009.65
2018-02-07T06:59:18.838Z,1009.62
2018-02-07T07:00:18.803Z,1009.61
2018-02-07T07:01:18.769Z,1009.63
2018-02-07T07:02:18.733Z,1009.57
2018-02-07T07:03:19.692Z,1009.59
2018-02-07T07:04:18.655Z,1009.67
2018-02-07T07:05:18.628Z,1009.69
2018-02-07T07:06:18.602Z,1009.73
2018-02-07T07:07:18.561Z,1009.72
2018-02-07T07:08:18.522Z,1009.73
2018-02-07T07:09:20.193Z,1009.73
2018-02-07T07:10:18.452Z,1009.68
2018-02-07T07:11:18.413Z,1009.73
2018-02-07T07:12:18.382Z,1009.72
2018-02-07T07:13:20.180Z,1009.69
2018-02-07T07:14:18.310Z,1009.69
2018-02-07T07:15:18.272Z,1009.71
2018-02-07T07:16:18.237Z,1009.73
2018-02-07T07:17:18.200Z,1009.73
2018-02-07T07:18:18.687Z,1009.78
2018-02-07T07:19:18.136Z,1009.79
2018-02-07T07:20:18.108Z,1009.85
2018-02-07T07:21:18.067Z,1009.83
2018-02-07T07:22:18.033Z,1009.84
2018-02-07T07:23:17.996Z,1009.85
2018-02-07T07:24:19.684Z,1009.83
2018-02-07T07:25:17.928Z,1009.85
2018-02-07T07:26:17.919Z,1009.85
2018-02-07T07:27:17.853Z,1009.84
2018-02-07T07:28:17.818Z,1009.80
2018-02-07T07:29:17.798Z,1009.87
2018-02-07T07:30:19.714Z,1009.85
2018-02-07T07:31:17.714Z,1009.92
2018-02-07T07:32:17.680Z,1009.90
2018-02-07T07:33:17.646Z,1009.94
2018-02-07T07:34:17.607Z,1009.93
2018-02-07T07:35:17.614Z,1009.98
2018-02-07T07:36:17.543Z,1009.93
2018-02-07T07:37:19.202Z,1009.94
2018-02-07T07:38:17.476Z,1009.95
2018-02-07T07:39:17.438Z,1010.01
2018-02-07T07:40:17.406Z,1009.99
2018-02-07T07:41:17.374Z,1010.00
2018-02-07T07:42:17.333Z,1010.00
2018-02-07T07:43:17.294Z,1010.00
2018-02-07T07:44:17.276Z,1009.99
2018-02-07T07:45:17.224Z,1010.10
2018-02-07T07:46:17.189Z,1010.07
2018-02-07T07:47:17.212Z,1010.07
2018-02-07T07:48:17.121Z,1010.07
2018-02-07T07:49:17.089Z,1010.06
2018-02-07T07:50:17.078Z,1010.07
2018-02-07T07:51:17.021Z,1009.99
2018-02-07T07:52:16.982Z,1010.02
2018-02-07T07:53:16.947Z,1010.03
2018-02-07T07:54:16.909Z,1010.03
2018-02-07T07:55:16.877Z,1010.02
2018-02-07T07:56:16.844Z,1010.02
2018-02-07T07:57:16.807Z,1010.05
2018-02-07T07:58:16.802Z,1010.05
2018-02-07T07:59:16.737Z,1010.10
2018-02-07T08:00:16.700Z,1010.08
2018-02-07T08:01:16.665Z,1010.10
2018-02-07T08:02:16.632Z,1010.13
2018-02-07T08:03:16.594Z,1010.13
2018-02-07T08:04:16.556Z,1010.10
2018-02-07T08:05:16.523Z,1010.17
2018-02-07T08:06:19.194Z,1010.16
2018-02-07T08:07:16.455Z,1010.18
2018-02-07T08:08:16.420Z,1010.19
2018-02-07T08:09:16.387Z,1010.19
2018-02-07T08:10:16.352Z,1010.16
2018-02-07T08:11:16.321Z,1010.13
2018-02-07T08:12:16.283Z,1010.14
2018-02-07T08:13:18.198Z,1010.11
2018-02-07T08:14:16.214Z,1010.13
2018-02-07T08:15:17.695Z,1010.10
2018-02-07T08:16:17.135Z,1010.15
2018-02-07T08:17:16.106Z,1010.16
2018-02-07T08:18:16.072Z,1010.05
2018-02-07T08:19:16.039Z,1010.08
2018-02-07T08:20:16.002Z,1010.08
2018-02-07T08:21:18.686Z,1010.11
2018-02-07T08:22:17.697Z,1010.13
2018-02-07T08:23:15.894Z,1010.16
2018-02-07T08:24:15.857Z,1010.15
2018-02-07T08:25:15.825Z,1010.19
2018-02-07T08:26:15.789Z,1010.15
2018-02-07T08:27:15.755Z,1010.23
2018-02-07T08:28:15.716Z,1010.22
2018-02-07T08:29:17.184Z,1010.20
2018-02-07T08:30:15.649Z,1010.20
2018-02-07T08:31:15.619Z,1010.22
2018-02-07T08:32:15.584Z,1010.20
2018-02-07T08:33:18.186Z,1010.19
2018-02-07T08:34:17.197Z,1010.16
2018-02-07T08:35:15.475Z,1010.19
2018-02-07T08:36:15.441Z,1010.23
2018-02-07T08:37:15.427Z,1010.22
2018-02-07T08:38:15.372Z,1010.21
2018-02-07T08:39:15.332Z,1010.24
2018-02-07T08:40:15.301Z,1010.25
2018-02-07T08:41:15.269Z,1010.26
2018-02-07T08:42:15.231Z,1010.30
2018-02-07T08:43:15.243Z,1010.37
2018-02-07T08:44:15.164Z,1010.36
2018-02-07T08:45:15.124Z,1010.36
2018-02-07T08:46:15.118Z,1010.40
2018-02-07T08:47:16.718Z,1010.49
2018-02-07T08:48:15.032Z,1010.44
2018-02-07T08:49:15.022Z,1010.49
2018-02-07T08:50:14.954Z,1010.51
2018-02-07T08:51:14.923Z,1010.48
2018-02-07T08:52:14.912Z,1010.52
2018-02-07T08:53:16.704Z,1010.55
2018-02-07T08:54:14.819Z,1010.55
2018-02-07T08:55:17.685Z,1010.54
2018-02-07T08:56:14.742Z,1010.64
2018-02-07T08:57:14.709Z,1010.65
2018-02-07T08:58:14.672Z,1010.63
2018-02-07T08:59:14.638Z,1010.67
2018-02-07T09:00:14.601Z,1010.65
2018-02-07T09:01:14.575Z,1010.68
2018-02-07T09:02:14.536Z,1010.66
2018-02-07T09:03:14.549Z,1010.68
2018-02-07T09:04:14.469Z,1010.73
2018-02-07T09:05:14.435Z,1010.70
2018-02-07T09:06:14.402Z,1010.75
2018-02-07T09:07:14.373Z,1010.76
2018-02-07T09:08:17.187Z,1010.77
2018-02-07T09:09:14.299Z,1010.74
2018-02-07T09:10:14.263Z,1010.76
2018-02-07T09:11:14.227Z,1010.81
2018-02-07T09:12:14.193Z,1010.82
2018-02-07T09:13:14.156Z,1010.85
2018-02-07T09:14:14.123Z,1010.86
2018-02-07T09:15:14.092Z,1010.83
2018-02-07T09:16:14.059Z,1010.85
2018-02-07T09:17:14.026Z,1010.88
2018-02-07T09:18:13.998Z,1010.90
2018-02-07T09:19:14.946Z,1010.95
2018-02-07T09:20:13.918Z,1010.97
2018-02-07T09:21:13.889Z,1010.93
2018-02-07T09:22:13.850Z,1010.95
2018-02-07T09:23:13.817Z,1010.92
2018-02-07T09:24:13.789Z,1010.93
2018-02-07T09:25:13.752Z,1010.91
2018-02-07T09:26:13.718Z,1010.88
2018-02-07T09:27:16.199Z,1010.85
2018-02-07T09:28:13.655Z,1010.84
2018-02-07T09:29:16.236Z,1010.86
2018-02-07T09:30:13.581Z,1010.87
2018-02-07T09:31:13.637Z,1010.87
2018-02-07T09:32:13.510Z,1010.87
2018-02-07T09:33:13.486Z,1010.86
2018-02-07T09:34:15.199Z,1010.86
2018-02-07T09:35:13.408Z,1010.89
2018-02-07T09:36:13.369Z,1010.86
2018-02-07T09:37:13.338Z,1010.86
2018-02-07T09:38:13.310Z,1010.94
2018-02-07T09:39:15.187Z,1010.91
2018-02-07T09:40:15.198Z,1010.93
2018-02-07T09:41:13.205Z,1010.94
2018-02-07T09:42:13.174Z,1010.94
2018-02-07T09:43:13.140Z,1010.95
2018-02-07T09:44:13.122Z,1010.98
2018-02-07T09:45:13.073Z,1010.96
2018-02-07T09:46:14.695Z,1010.97
2018-02-07T09:47:13.000Z,1010.93
2018-02-07T09:48:12.982Z,1011.00
2018-02-07T09:49:12.934Z,1011.00
2018-02-07T09:50:15.691Z,1011.03
2018-02-07T09:51:12.883Z,1011.00
2018-02-07T09:52:12.825Z,1011.07
2018-02-07T09:53:12.791Z,1011.08
2018-02-07T09:54:12.758Z,1011.10
2018-02-07T09:55:12.730Z,1011.11
2018-02-07T09:56:13.688Z,1011.17
2018-02-07T09:57:12.657Z,1011.11
2018-02-07T09:58:12.626Z,1011.17
2018-02-07T09:59:12.596Z,1011.14
2018-02-07T10:00:12.570Z,1011.13
2018-02-07T10:01:12.527Z,1011.18
2018-02-07T10:02:15.198Z,1011.17
2018-02-07T10:03:12.474Z,1011.19
2018-02-07T10:04:12.425Z,1011.18
2018-02-07T10:05:12.398Z,1011.20
2018-02-07T10:06:12.385Z,1011.17
2018-02-07T10:07:15.191Z,1011.19
2018-02-07T10:08:12.284Z,1011.23
2018-02-07T10:09:12.260Z,1011.24
2018-02-07T10:10:14.210Z,1011.19
2018-02-07T10:11:12.187Z,1011.21
2018-02-07T10:12:12.187Z,1011.20
2018-02-07T10:13:14.720Z,1011.21
2018-02-07T10:14:12.085Z,1011.15
2018-02-07T10:15:12.055Z,1011.24
2018-02-07T10:16:12.028Z,1011.17
2018-02-07T10:17:11.989Z,1011.15
2018-02-07T10:18:11.961Z,1011.15
2018-02-07T10:19:11.924Z,1011.18
2018-02-07T10:20:11.884Z,1011.14
2018-02-07T10:21:11.880Z,1011.19
2018-02-07T10:22:11.821Z,1011.18
2018-02-07T10:23:13.761Z,1011.17
2018-02-07T10:24:11.758Z,1011.20
2018-02-07T10:25:11.728Z,1011.18
2018-02-07T10:26:11.692Z,1011.14
2018-02-07T10:27:11.715Z,1011.17
2018-02-07T10:28:11.627Z,1011.20
2018-02-07T10:29:11.618Z,1011.18
2018-02-07T10:30:11.558Z,1011.20
2018-02-07T10:31:11.531Z,1011.19
2018-02-07T10:32:11.533Z,1011.18
2018-02-07T10:33:11.456Z,1011.22
2018-02-07T10:34:11.424Z,1011.18
2018-02-07T10:35:11.389Z,1011.26
2018-02-07T10:36:11.357Z,1011.22
2018-02-07T10:37:11.324Z,1011.20
2018-02-07T10:38:11.290Z,1011.21
2018-02-07T10:39:11.265Z,1011.20
2018-02-07T10:40:11.232Z,1011.25
2018-02-07T10:41:11.201Z,1011.23
2018-02-07T10:42:11.165Z,1011.22
2018-02-07T10:43:11.130Z,1011.24
2018-02-07T10:44:11.102Z,1011.19
2018-02-07T10:45:11.064Z,1011.23
2018-02-07T10:46:12.717Z,1011.27
2018-02-07T10:47:10.998Z,1011.27
2018-02-07T10:48:10.962Z,1011.32
2018-02-07T10:49:10.932Z,1011.30
2018-02-07T10:50:10.897Z,1011.34
2018-02-07T10:51:10.874Z,1011.33
2018-02-07T10:52:10.831Z,1011.31
2018-02-07T10:53:10.800Z,1011.34
2018-02-07T10:54:10.770Z,1011.33
2018-02-07T10:55:10.737Z,1011.34
2018-02-07T10:56:10.705Z,1011.30
2018-02-07T10:57:10.676Z,1011.31
2018-02-07T10:58:10.654Z,1011.29
2018-02-07T10:59:10.605Z,1011.31
2018-02-07T11:00:12.195Z,1011.29
2018-02-07T11:01:10.542Z,1011.27
2018-02-07T11:02:10.512Z,1011.33
2018-02-07T11:03:10.552Z,1011.26
2018-02-07T11:04:10.442Z,1011.29
2018-02-07T11:05:10.408Z,1011.28
2018-02-07T11:06:10.383Z,1011.26
2018-02-07T11:07:10.386Z,1011.23
2018-02-07T11:08:10.313Z,1011.23
2018-02-07T11:09:10.293Z,1011.28
2018-02-07T11:10:12.240Z,1011.24
2018-02-07T11:11:10.221Z,1011.24
2018-02-07T11:12:10.208Z,1011.23
2018-02-07T11:13:10.159Z,1011.28
2018-02-07T11:14:10.121Z,1011.27
2018-02-07T11:15:10.095Z,1011.32
2018-02-07T11:16:10.056Z,1011.30
2018-02-07T11:17:10.024Z,1011.33
2018-02-07T11:18:09.997Z,1011.29
2018-02-07T11:19:09.954Z,1011.33
2018-02-07T11:20:09.923Z,1011.33
2018-02-07T11:21:09.895Z,1011.38
2018-02-07T11:22:09.859Z,1011.43
2018-02-07T11:23:09.830Z,1011.47
2018-02-07T11:24:09.794Z,1011.47
2018-02-07T11:25:09.772Z,1011.41
2018-02-07T11:26:11.696Z,1011.44
2018-02-07T11:27:09.702Z,1011.39
2018-02-07T11:28:09.672Z,1011.40
2018-02-07T11:29:09.639Z,1011.36
2018-02-07T11:30:09.606Z,1011.40
2018-02-07T11:31:09.579Z,1011.40
2018-02-07T11:32:09.542Z,1011.48
2018-02-07T11:33:09.514Z,1011.38
2018-02-07T11:34:09.482Z,1011.46
2018-02-07T11:35:09.442Z,1011.42
2018-02-07T11:36:09.432Z,1011.43
2018-02-07T11:37:11.195Z,1011.41
2018-02-07T11:38:09.349Z,1011.38
2018-02-07T11:39:09.318Z,1011.42
2018-02-07T11:40:09.285Z,1011.42
2018-02-07T11:41:09.254Z,1011.36
2018-02-07T11:42:09.223Z,1011.38
2018-02-07T11:43:11.699Z,1011.42
2018-02-07T11:44:09.162Z,1011.44
2018-02-07T11:45:09.161Z,1011.44
2018-02-07T11:46:09.101Z,1011.46
2018-02-07T11:47:09.066Z,1011.45
2018-02-07T11:48:09.035Z,1011.48
2018-02-07T11:49:09.006Z,1011.50
2018-02-07T11:50:10.712Z,1011.45
2018-02-07T11:51:08.942Z,1011.44
2018-02-07T11:52:08.911Z,1011.44
2018-02-07T11:53:10.700Z,1011.46
2018-02-07T11:54:08.842Z,1011.40
2018-02-07T11:55:08.812Z,1011.43
2018-02-07T11:56:08.784Z,1011.40
2018-02-07T11:57:08.754Z,1011.40
2018-02-07T11:58:08.716Z,1011.43
2018-02-07T11:59:08.687Z,1011.45
2018-02-07T12:00:08.656Z,1011.39
2018-02-07T12:01:08.636Z,1011.43
2018-02-07T12:02:08.598Z,1011.37
2018-02-07T12:03:08.620Z,1011.39
2018-02-07T12:04:08.544Z,1011.37
2018-02-07T12:05:11.263Z,1011.42